createdAt,value
2018-04-06T00:00:33.281Z,6.10
2018-04-06T00:03:00.232Z,6.10
2018-04-06T00:05:27.224Z,6.10
2018-04-06T00:07:53.450Z,6.10
2018-04-06T00:10:19.735Z,6.20
2018-04-06T00:12:46.724Z,6.10
2018-04-06T00:15:12.953Z,6.00
2018-04-06T00:17:39.188Z,6.00
2018-04-06T00:20:05.440Z,5.90
2018-04-06T00:22:31.653Z,5.90
2018-04-06T00:24:57.877Z,5.90
2018-04-06T00:27:24.112Z,5.80
2018-04-06T00:29:50.346Z,5.80
2018-04-06T00:32:17.640Z,5.80
2018-04-06T00:34:47.536Z,5.80
2018-04-06T00:37:13.812Z,5.80
2018-04-06T00:39:40.067Z,5.70
2018-04-06T00:42:06.291Z,5.70
2018-04-06T00:44:32.478Z,5.60
2018-04-06T00:46:58.721Z,5.70
2018-04-06T00:49:24.950Z,5.70
2018-04-06T00:51:51.181Z,5.70
2018-04-06T00:54:17.435Z,5.70
2018-04-06T00:56:43.652Z,5.70
2018-04-06T00:59:09.871Z,5.60
2018-04-06T01:01:36.046Z,5.40
2018-04-06T01:04:02.247Z,5.50
2018-04-06T01:06:28.459Z,5.50
2018-04-06T01:08:54.649Z,5.60
2018-04-06T01:11:20.827Z,5.40
2018-04-06T01:13:47.036Z,5.20
2018-04-06T01:16:13.262Z,5.30
2018-04-06T01:18:39.450Z,5.30
2018-04-06T01:21:05.665Z,5.40
2018-04-06T01:23:32.245Z,5.40
2018-04-06T01:25:58.496Z,5.40
2018-04-06T01:28:24.694Z,5.40
2018-04-06T01:30:50.934Z,5.40
2018-04-06T01:33:17.161Z,5.40
2018-04-06T01:35:43.378Z,5.40
2018-04-06T01:38:09.584Z,5.40
2018-04-06T01:40:35.786Z,5.40
2018-04-06T01:43:02.012Z,5.50
2018-04-06T01:45:28.368Z,5.50
2018-04-06T01:47:54.652Z,5.40
2018-04-06T01:50:20.881Z,5.20
2018-04-06T01:52:47.096Z,5.20
2018-04-06T01:55:13.318Z,5.20
2018-04-06T01:57:39.536Z,5.10
2018-04-06T02:00:05.756Z,5.10
2018-04-06T02:02:31.971Z,5.00
2018-04-06T02:04:58.221Z,5.00
2018-04-06T02:07:24.453Z,5.00
2018-04-06T02:09:50.644Z,5.00
2018-04-06T02:12:17.601Z,5.00
2018-04-06T02:14:43.977Z,5.00
2018-04-06T02:17:10.170Z,5.00
2018-04-06T02:19:36.399Z,5.10
2018-04-06T02:22:02.608Z,5.00
2018-04-06T02:24:28.867Z,5.00
2018-04-06T02:26:54.996Z,5.00
2018-04-06T02:29:21.254Z,5.00
2018-04-06T02:31:47.795Z,5.00
2018-04-06T02:34:14.021Z,5.00
2018-04-06T02:36:40.233Z,5.00
2018-04-06T02:39:06.491Z,5.00
2018-04-06T02:41:34.308Z,5.10
2018-04-06T02:44:01.494Z,5.00
2018-04-06T02:46:27.724Z,5.00
2018-04-06T02:48:53.958Z,5.00
2018-04-06T02:51:21.116Z,5.00
2018-04-06T02:53:48.444Z,5.00
2018-04-06T02:56:14.922Z,4.90
2018-04-06T02:58:41.135Z,5.00
2018-04-06T03:01:08.094Z,5.00
2018-04-06T03:03:35.123Z,4.90
2018-04-06T03:06:02.095Z,4.90
2018-04-06T03:08:28.320Z,4.80
2018-04-06T03:10:55.308Z,4.90
2018-04-06T03:13:21.559Z,4.80
2018-04-06T03:15:47.874Z,4.90
2018-04-06T03:18:14.082Z,4.80
2018-04-06T03:20:40.298Z,4.80
2018-04-06T03:23:06.541Z,4.80
2018-04-06T03:25:32.824Z,4.80
2018-04-06T03:27:59.762Z,4.70
2018-04-06T03:30:26.754Z,4.50
2018-04-06T03:32:52.971Z,4.50
2018-04-06T03:35:19.261Z,4.60
2018-04-06T03:37:45.493Z,4.50
2018-04-06T03:40:12.463Z,4.50
2018-04-06T03:42:38.666Z,4.40
2018-04-06T03:45:05.706Z,4.50
2018-04-06T03:47:31.932Z,4.40
2018-04-06T03:49:58.144Z,4.50
2018-04-06T03:52:24.379Z,4.50
2018-04-06T03:54:50.639Z,4.50
2018-04-06T03:57:17.598Z,4.40
2018-04-06T03:59:43.844Z,4.40
2018-04-06T04:02:10.046Z,4.40
2018-04-06T04:04:37.052Z,4.40
2018-04-06T04:07:03.292Z,4.40
2018-04-06T04:09:29.509Z,4.40
2018-04-06T04:11:55.748Z,4.40
2018-04-06T04:14:21.930Z,4.40
2018-04-06T04:16:49.228Z,4.40
2018-04-06T04:19:15.729Z,4.30
2018-04-06T04:21:41.938Z,4.30
2018-04-06T04:24:08.241Z,4.30
2018-04-06T04:26:35.200Z,4.30
2018-04-06T04:29:01.612Z,4.30
2018-04-06T04:31:28.554Z,4.30
2018-04-06T04:33:55.497Z,4.30
2018-04-06T04:36:22.518Z,4.30
2018-04-06T04:38:48.808Z,4.30
2018-04-06T04:41:15.023Z,4.30
2018-04-06T04:43:41.229Z,4.20
2018-04-06T04:46:08.209Z,4.20
2018-04-06T04:48:34.422Z,4.10
2018-04-06T04:51:01.369Z,4.10
2018-04-06T04:53:27.576Z,4.10
2018-04-06T04:55:54.515Z,4.10
2018-04-06T04:58:20.809Z,4.10
2018-04-06T05:00:46.993Z,4.10
2018-04-06T05:03:13.978Z,4.20
2018-04-06T05:05:40.217Z,4.10
2018-04-06T05:08:06.458Z,4.20
2018-04-06T05:10:32.726Z,4.20
2018-04-06T05:12:59.691Z,4.20
2018-04-06T05:15:25.910Z,4.20
2018-04-06T05:17:52.156Z,4.20
2018-04-06T05:20:18.354Z,4.20
2018-04-06T05:22:45.303Z,4.10
2018-04-06T05:25:12.358Z,4.10
2018-04-06T05:27:38.531Z,4.10
2018-04-06T05:30:04.730Z,4.10
2018-04-06T05:32:30.939Z,4.10
2018-04-06T05:34:57.150Z,4.10
2018-04-06T05:37:24.110Z,4.10
2018-04-06T05:39:50.336Z,4.10
2018-04-06T05:42:16.577Z,4.20
2018-04-06T05:44:42.786Z,4.20
2018-04-06T05:47:09.720Z,4.30
2018-04-06T05:49:36.650Z,4.30
2018-04-06T05:52:02.846Z,4.20
2018-04-06T05:54:29.061Z,4.30
2018-04-06T05:56:55.258Z,4.30
2018-04-06T05:59:21.516Z,4.30
2018-04-06T06:01:47.758Z,4.40
2018-04-06T06:04:13.974Z,4.40
2018-04-06T06:06:40.192Z,4.40
2018-04-06T06:09:06.417Z,4.50
2018-04-06T06:11:32.625Z,4.50
2018-04-06T06:13:59.614Z,4.50
2018-04-06T06:16:25.857Z,4.50
2018-04-06T06:18:52.102Z,4.50
2018-04-06T06:21:19.121Z,4.60
2018-04-06T06:23:45.365Z,4.60
2018-04-06T06:26:11.650Z,4.60
2018-04-06T06:28:37.896Z,4.70
2018-04-06T06:31:04.103Z,4.70
2018-04-06T06:33:30.350Z,4.70
2018-04-06T06:35:56.616Z,4.70
2018-04-06T06:38:22.859Z,4.80
2018-04-06T06:40:49.071Z,4.80
2018-04-06T06:43:15.385Z,4.80
2018-04-06T06:45:41.584Z,4.90
2018-04-06T06:48:07.826Z,5.10
2018-04-06T06:50:34.143Z,5.40
2018-04-06T06:53:00.356Z,5.70
2018-04-06T06:55:26.618Z,6.00
2018-04-06T06:57:52.876Z,6.10
2018-04-06T07:00:19.151Z,6.10
2018-04-06T07:02:45.394Z,6.10
2018-04-06T07:05:11.616Z,6.10
2018-04-06T07:07:37.882Z,6.00
2018-04-06T07:10:04.120Z,5.90
2018-04-06T07:12:30.353Z,5.90
2018-04-06T07:14:57.327Z,5.80
2018-04-06T07:17:23.585Z,5.80
2018-04-06T07:19:49.836Z,5.90
2018-04-06T07:22:16.027Z,5.80
2018-04-06T07:24:42.296Z,5.90
2018-04-06T07:27:08.485Z,5.90
2018-04-06T07:29:34.688Z,5.90
2018-04-06T07:32:01.814Z,5.90
2018-04-06T07:34:28.778Z,6.10
2018-04-06T07:36:55.002Z,6.00
2018-04-06T07:39:22.145Z,6.20
2018-04-06T07:41:48.461Z,6.10
2018-04-06T07:44:15.458Z,6.20
2018-04-06T07:46:41.587Z,6.20
2018-04-06T07:49:07.769Z,6.30
2018-04-06T07:51:34.036Z,6.40
2018-04-06T07:54:01.107Z,6.40
2018-04-06T07:56:29.526Z,6.50
2018-04-06T07:58:56.514Z,6.60
2018-04-06T08:01:22.845Z,6.60
2018-04-06T08:03:49.314Z,6.70
2018-04-06T08:06:15.649Z,6.80
2018-04-06T08:08:41.863Z,6.90
2018-04-06T08:11:08.142Z,7.00
2018-04-06T08:13:34.327Z,7.10
2018-04-06T08:16:00.582Z,7.20
2018-04-06T08:18:27.129Z,7.30
2018-04-06T08:20:53.624Z,7.30
2018-04-06T08:23:19.860Z,7.40
2018-04-06T08:25:46.128Z,7.50
2018-04-06T08:28:12.369Z,7.60
2018-04-06T08:30:38.596Z,7.70
2018-04-06T08:33:04.824Z,7.70
2018-04-06T08:35:31.077Z,7.80
2018-04-06T08:37:57.339Z,7.90
2018-04-06T08:40:23.579Z,8.10
2018-04-06T08:42:50.517Z,8.30
2018-04-06T08:45:17.494Z,8.40
2018-04-06T08:47:43.725Z,8.40
2018-04-06T08:50:09.931Z,8.40
2018-04-06T08:52:36.914Z,8.60
2018-04-06T08:55:03.179Z,8.50
2018-04-06T08:57:29.368Z,8.60
2018-04-06T08:59:55.610Z,8.70
2018-04-06T09:02:21.795Z,8.80
2018-04-06T09:04:48.050Z,8.90
2018-04-06T09:07:14.225Z,9.00
2018-04-06T09:09:40.412Z,9.10
2018-04-06T09:12:06.640Z,9.10
2018-04-06T09:14:32.868Z,9.20
2018-04-06T09:16:59.087Z,9.40
2018-04-06T09:19:25.332Z,9.50
2018-04-06T09:21:51.536Z,9.60
2018-04-06T09:24:17.762Z,9.60
2018-04-06T09:26:43.974Z,9.70
2018-04-06T09:29:10.329Z,9.90
2018-04-06T09:31:36.561Z,9.90
2018-04-06T09:34:02.758Z,10.00
2018-04-06T09:36:29.042Z,10.10
2018-04-06T09:38:55.243Z,10.40
2018-04-06T09:41:21.448Z,10.80
2018-04-06T09:43:47.668Z,10.80
2018-04-06T09:46:13.863Z,10.80
2018-04-06T09:48:40.085Z,10.80
2018-04-06T09:51:06.318Z,10.90
2018-04-06T09:53:32.550Z,11.00
2018-04-06T09:55:58.777Z,11.00
2018-04-06T09:58:24.977Z,11.10
2018-04-06T10:00:57.268Z,11.10
2018-04-06T10:03:23.460Z,11.40
2018-04-06T10:05:49.681Z,11.40
2018-04-06T10:08:15.957Z,11.40
2018-04-06T10:10:42.196Z,11.50
2018-04-06T10:13:08.402Z,11.50
2018-04-06T10:15:34.661Z,11.50
2018-04-06T10:18:01.617Z,11.90
2018-04-06T10:20:27.850Z,11.80
2018-04-06T10:22:54.072Z,12.00
2018-04-06T10:25:21.726Z,11.90
2018-04-06T10:27:48.677Z,12.20
2018-04-06T10:30:15.645Z,12.40
2018-04-06T10:32:41.838Z,12.40
2018-04-06T10:35:08.161Z,12.40
2018-04-06T10:37:34.415Z,12.40
2018-04-06T10:40:00.668Z,12.40
2018-04-06T10:42:26.876Z,12.50
2018-04-06T10:44:53.087Z,12.60
2018-04-06T10:47:20.012Z,12.60
2018-04-06T10:49:46.216Z,12.60
2018-04-06T10:52:12.394Z,12.80
2018-04-06T10:54:38.874Z,12.80
2018-04-06T10:57:05.237Z,12.90
2018-04-06T10:59:32.294Z,13.10
2018-04-06T11:01:58.562Z,13.00
2018-04-06T11:04:24.790Z,13.20
2018-04-06T11:06:51.045Z,13.30
2018-04-06T11:09:17.325Z,13.40
2018-04-06T11:11:43.587Z,13.40
2018-04-06T11:14:09.892Z,13.80
2018-04-06T11:16:36.160Z,13.80
2018-04-06T11:19:02.328Z,13.80
2018-04-06T11:21:28.496Z,13.80
2018-04-06T11:23:54.693Z,13.80
2018-04-06T11:26:21.642Z,13.90
2018-04-06T11:28:47.872Z,13.90
2018-04-06T11:31:14.084Z,14.20
2018-04-06T11:33:41.012Z,14.10
2018-04-06T11:36:07.213Z,14.10
2018-04-06T11:38:33.456Z,14.40
2018-04-06T11:40:59.666Z,14.40
2018-04-06T11:43:25.878Z,14.60
2018-04-06T11:45:52.089Z,14.50
2018-04-06T11:48:18.309Z,14.50
2018-04-06T11:50:44.514Z,14.50
2018-04-06T11:53:11.454Z,14.70
2018-04-06T11:55:37.665Z,14.70
2018-04-06T11:58:03.880Z,14.70
2018-04-06T12:00:30.145Z,14.70
2018-04-06T12:02:57.076Z,14.80
2018-04-06T12:05:23.351Z,14.80
2018-04-06T12:07:49.551Z,14.90
2018-04-06T12:10:16.491Z,15.30
2018-04-06T12:12:42.736Z,15.30
2018-04-06T12:15:09.694Z,15.30
2018-04-06T12:17:35.899Z,15.30
2018-04-06T12:20:02.852Z,15.40
2018-04-06T12:22:29.779Z,15.50
2018-04-06T12:24:55.980Z,15.40
2018-04-06T12:27:22.191Z,15.50
2018-04-06T12:29:48.396Z,15.50
2018-04-06T12:32:14.623Z,15.60
2018-04-06T12:34:40.834Z,15.60
2018-04-06T12:37:11.673Z,15.60
2018-04-06T12:39:37.883Z,15.60
2018-04-06T12:42:04.086Z,15.60
2018-04-06T12:44:30.318Z,15.60
2018-04-06T12:46:56.548Z,15.60
2018-04-06T12:49:22.721Z,15.60
2018-04-06T12:51:48.917Z,15.60
2018-04-06T12:54:15.180Z,15.60
2018-04-06T12:56:41.429Z,15.60
2018-04-06T12:59:07.698Z,15.70
2018-04-06T13:01:34.292Z,15.80
2018-04-06T13:04:00.508Z,15.90
2018-04-06T13:06:26.731Z,15.90
2018-04-06T13:08:52.917Z,16.00
2018-04-06T13:11:19.149Z,16.10
2018-04-06T13:13:45.377Z,16.30
2018-04-06T13:16:11.589Z,16.50
2018-04-06T13:18:37.784Z,16.50
2018-04-06T13:21:03.968Z,16.50
2018-04-06T13:23:30.897Z,16.50
2018-04-06T13:25:57.103Z,16.50
2018-04-06T13:28:23.290Z,16.60
2018-04-06T13:30:49.519Z,16.60
2018-04-06T13:33:15.704Z,16.60
2018-04-06T13:35:41.875Z,16.60
2018-04-06T13:38:08.105Z,16.60
2018-04-06T13:40:34.325Z,16.80
2018-04-06T13:43:00.502Z,16.80
2018-04-06T13:45:26.658Z,17.10
2018-04-06T13:47:53.630Z,17.10
2018-04-06T13:50:19.812Z,17.00
2018-04-06T13:52:45.997Z,17.00
2018-04-06T13:55:12.262Z,17.00
2018-04-06T13:57:38.476Z,17.20
2018-04-06T14:00:04.712Z,17.10
2018-04-06T14:02:30.905Z,17.10
2018-04-06T14:04:57.130Z,17.10
2018-04-06T14:07:23.299Z,17.10
2018-04-06T14:09:51.527Z,17.10
2018-04-06T14:12:17.709Z,17.10
2018-04-06T14:14:43.961Z,17.20
2018-04-06T14:17:10.923Z,17.30
2018-04-06T14:19:37.148Z,17.20
2018-04-06T14:22:03.344Z,17.30
2018-04-06T14:24:29.579Z,17.30
2018-04-06T14:26:55.780Z,17.30
2018-04-06T14:29:22.003Z,17.40
2018-04-06T14:31:48.182Z,17.40
2018-04-06T14:34:14.394Z,17.30
2018-04-06T14:36:41.532Z,17.30
2018-04-06T14:39:08.464Z,17.40
2018-04-06T14:41:34.655Z,17.30
2018-04-06T14:44:00.860Z,17.40
2018-04-06T14:46:27.056Z,17.40
2018-04-06T14:48:53.272Z,17.50
2018-04-06T14:51:19.504Z,17.50
2018-04-06T14:53:45.724Z,17.50
2018-04-06T14:56:11.909Z,17.50
2018-04-06T14:58:38.119Z,17.60
2018-04-06T15:01:04.330Z,17.60
2018-04-06T15:03:31.266Z,17.60
2018-04-06T15:06:00.656Z,17.50
2018-04-06T15:08:26.870Z,17.70
2018-04-06T15:10:53.054Z,17.60
2018-04-06T15:13:19.243Z,17.60
2018-04-06T15:15:45.459Z,17.60
2018-04-06T15:18:12.702Z,17.60
2018-04-06T15:20:38.938Z,17.60
2018-04-06T15:23:05.104Z,17.60
2018-04-06T15:25:32.047Z,17.60
2018-04-06T15:27:59.018Z,17.60
2018-04-06T15:30:25.206Z,17.50
2018-04-06T15:32:52.145Z,17.70
2018-04-06T15:35:18.352Z,17.60
2018-04-06T15:37:44.515Z,17.70
2018-04-06T15:40:10.768Z,17.70
2018-04-06T15:42:37.053Z,17.70
2018-04-06T15:45:03.310Z,17.70
2018-04-06T15:47:29.517Z,17.70
2018-04-06T15:49:55.766Z,17.70
2018-04-06T15:52:21.972Z,17.80
2018-04-06T15:54:48.264Z,17.80
2018-04-06T15:57:14.425Z,17.90
2018-04-06T15:59:40.676Z,17.80
2018-04-06T16:02:07.609Z,17.90
2018-04-06T16:04:34.584Z,17.90
2018-04-06T16:07:00.832Z,17.80
2018-04-06T16:09:27.089Z,17.80
2018-04-06T16:11:53.287Z,17.80
2018-04-06T16:14:19.571Z,17.80
2018-04-06T16:16:46.533Z,17.80
2018-04-06T16:19:12.762Z,17.80
2018-04-06T16:21:38.970Z,17.80
2018-04-06T16:24:05.993Z,17.80
2018-04-06T16:26:32.194Z,17.70
2018-04-06T16:28:58.386Z,17.80
2018-04-06T16:31:24.618Z,17.80
2018-04-06T16:33:50.804Z,17.80
2018-04-06T16:36:17.032Z,17.80
2018-04-06T16:38:43.215Z,17.80
2018-04-06T16:41:09.458Z,17.80
2018-04-06T16:43:35.658Z,17.80
2018-04-06T16:46:01.864Z,17.80
2018-04-06T16:48:28.796Z,17.70
2018-04-06T16:50:54.991Z,17.70
2018-04-06T16:53:21.193Z,17.80
2018-04-06T16:55:47.437Z,17.80
2018-04-06T16:58:13.653Z,17.70
2018-04-06T17:00:39.876Z,17.70
2018-04-06T17:03:06.088Z,17.80
2018-04-06T17:05:32.265Z,17.70
2018-04-06T17:07:58.489Z,17.70
2018-04-06T17:10:24.766Z,17.70
2018-04-06T17:12:51.758Z,17.70
2018-04-06T17:15:17.952Z,17.70
2018-04-06T17:17:44.128Z,17.70
2018-04-06T17:20:10.385Z,17.70
2018-04-06T17:22:37.358Z,17.70
2018-04-06T17:25:03.570Z,17.60
2018-04-06T17:27:30.541Z,17.70
2018-04-06T17:29:56.751Z,17.60
2018-04-06T17:32:22.939Z,17.60
2018-04-06T17:34:49.140Z,17.60
2018-04-06T17:37:15.372Z,17.60
2018-04-06T17:39:41.612Z,17.60
2018-04-06T17:42:07.845Z,17.50
2018-04-06T17:44:34.044Z,17.60
2018-04-06T17:47:00.265Z,17.50
2018-04-06T17:49:27.065Z,17.50
2018-04-06T17:51:54.021Z,17.40
2018-04-06T17:54:20.961Z,17.40
2018-04-06T17:56:47.157Z,17.40
2018-04-06T17:59:13.406Z,17.40
2018-04-06T18:01:39.628Z,17.30
2018-04-06T18:04:05.862Z,17.30
2018-04-06T18:06:32.075Z,17.30
2018-04-06T18:08:58.299Z,17.30
2018-04-06T18:11:24.465Z,17.30
2018-04-06T18:13:51.413Z,17.10
2018-04-06T18:16:18.394Z,17.10
2018-04-06T18:18:44.634Z,17.00
2018-04-06T18:21:10.804Z,17.00
2018-04-06T18:23:37.720Z,17.00
2018-04-06T18:26:03.967Z,16.90
2018-04-06T18:28:30.238Z,16.90
2018-04-06T18:30:56.455Z,16.90
2018-04-06T18:33:22.625Z,16.90
2018-04-06T18:35:49.049Z,16.80
2018-04-06T18:38:15.285Z,16.80
2018-04-06T18:40:41.535Z,16.80
2018-04-06T18:43:07.764Z,16.70
2018-04-06T18:45:34.088Z,16.60
2018-04-06T18:48:00.256Z,16.60
2018-04-06T18:50:26.465Z,16.50
2018-04-06T18:52:53.467Z,16.40
2018-04-06T18:55:19.704Z,16.30
2018-04-06T18:57:45.914Z,16.30
2018-04-06T19:00:12.173Z,16.30
2018-04-06T19:02:38.451Z,16.20
2018-04-06T19:05:04.692Z,16.00
2018-04-06T19:07:30.933Z,16.00
2018-04-06T19:09:57.152Z,16.00
2018-04-06T19:12:23.416Z,15.90
2018-04-06T19:14:49.599Z,15.80
2018-04-06T19:17:15.742Z,15.80
2018-04-06T19:19:42.016Z,15.70
2018-04-06T19:22:08.290Z,15.70
2018-04-06T19:24:34.667Z,15.70
2018-04-06T19:27:01.609Z,15.40
2018-04-06T19:29:27.780Z,15.40
2018-04-06T19:31:54.090Z,15.40
2018-04-06T19:34:20.386Z,15.30
2018-04-06T19:36:47.300Z,15.20
2018-04-06T19:39:13.524Z,15.20
2018-04-06T19:41:39.720Z,15.00
2018-04-06T19:44:05.952Z,14.90
2018-04-06T19:46:32.160Z,15.00
2018-04-06T19:48:59.108Z,14.70
2018-04-06T19:51:26.071Z,14.80
2018-04-06T19:53:52.294Z,14.70
2018-04-06T19:56:18.443Z,14.70
2018-04-06T19:58:44.638Z,14.50
2018-04-06T20:01:11.642Z,14.40
2018-04-06T20:03:38.841Z,14.40
2018-04-06T20:06:06.332Z,14.50
2018-04-06T20:08:32.547Z,14.40
2018-04-06T20:10:58.780Z,14.30
2018-04-06T20:13:24.952Z,14.30
2018-04-06T20:15:51.141Z,14.30
2018-04-06T20:18:17.454Z,14.30
2018-04-06T20:20:43.736Z,14.20
2018-04-06T20:23:09.924Z,14.20
2018-04-06T20:25:36.130Z,14.00
2018-04-06T20:28:02.332Z,14.00
2018-04-06T20:30:29.292Z,14.00
2018-04-06T20:32:56.212Z,13.90
2018-04-06T20:35:22.461Z,13.90
2018-04-06T20:37:49.412Z,13.90
2018-04-06T20:40:15.620Z,13.90
2018-04-06T20:42:41.841Z,13.80
2018-04-06T20:45:08.034Z,13.70
2018-04-06T20:47:34.257Z,13.70
2018-04-06T20:50:00.484Z,13.50
2018-04-06T20:52:26.710Z,13.40
2018-04-06T20:54:52.944Z,13.40
2018-04-06T20:57:19.131Z,13.30
2018-04-06T20:59:45.442Z,13.30
2018-04-06T21:02:11.683Z,13.20
2018-04-06T21:04:38.652Z,13.30
2018-04-06T21:07:04.916Z,13.20
2018-04-06T21:09:31.121Z,13.20
2018-04-06T21:11:57.303Z,13.20
2018-04-06T21:14:24.394Z,13.10
2018-04-06T21:16:51.311Z,13.20
2018-04-06T21:19:18.393Z,13.20
2018-04-06T21:21:44.588Z,13.20
2018-04-06T21:24:10.801Z,13.20
2018-04-06T21:26:37.780Z,13.20
2018-04-06T21:29:04.025Z,13.10
2018-04-06T21:31:30.409Z,13.20
2018-04-06T21:33:57.522Z,13.10
2018-04-06T21:36:23.764Z,13.10
2018-04-06T21:38:49.924Z,13.10
2018-04-06T21:41:16.142Z,13.20
2018-04-06T21:43:43.176Z,13.10
2018-04-06T21:46:09.445Z,13.10
2018-04-06T21:48:35.645Z,13.10
2018-04-06T21:51:01.791Z,13.10
2018-04-06T21:53:28.078Z,13.00
2018-04-06T21:55:54.326Z,13.10
2018-04-06T21:58:20.539Z,13.00
2018-04-06T22:00:46.786Z,13.00
2018-04-06T22:03:13.793Z,12.90
2018-04-06T22:05:40.006Z,12.90
2018-04-06T22:08:06.236Z,12.80
2018-04-06T22:10:32.469Z,12.90
2018-04-06T22:12:58.681Z,12.70
2018-04-06T22:15:24.898Z,12.70
2018-04-06T22:17:51.108Z,12.30
2018-04-06T22:20:18.061Z,12.40
2018-04-06T22:22:44.304Z,12.30
2018-04-06T22:25:10.562Z,12.30
2018-04-06T22:27:36.834Z,12.30
2018-04-06T22:30:03.107Z,12.30
2018-04-06T22:32:29.358Z,12.30
2018-04-06T22:34:55.600Z,12.20
2018-04-06T22:37:21.825Z,12.30
2018-04-06T22:39:48.102Z,12.10
2018-04-06T22:42:14.341Z,12.20
2018-04-06T22:44:40.555Z,12.10
2018-04-06T22:47:06.767Z,12.10
2018-04-06T22:49:32.989Z,11.90
2018-04-06T22:51:59.935Z,11.90
2018-04-06T22:54:26.875Z,11.70
2018-04-06T22:56:53.882Z,11.80
2018-04-06T22:59:20.105Z,11.70
2018-04-06T23:01:46.369Z,11.80
2018-04-06T23:04:13.326Z,11.80
2018-04-06T23:06:40.309Z,11.70
2018-04-06T23:09:06.522Z,11.70
2018-04-06T23:11:32.780Z,11.70
2018-04-06T23:13:59.011Z,11.70
2018-04-06T23:16:25.188Z,11.50
2018-04-06T23:18:52.141Z,11.50
2018-04-06T23:21:18.350Z,11.50
2018-04-06T23:23:45.299Z,11.50
2018-04-06T23:26:11.537Z,11.40
2018-04-06T23:28:37.762Z,11.50
2018-04-06T23:31:04.724Z,11.50
2018-04-06T23:33:30.982Z,11.40
2018-04-06T23:35:57.169Z,11.40
2018-04-06T23:38:23.419Z,11.20
2018-04-06T23:40:50.353Z,11.00
2018-04-06T23:43:16.613Z,10.90
2018-04-06T23:45:42.827Z,11.00
2018-04-06T23:48:09.069Z,10.80
2018-04-06T23:50:35.347Z,10.70
2018-04-06T23:53:01.593Z,10.60
2018-04-06T23:55:27.840Z,10.70
2018-04-06T23:57:54.093Z,10.70
